createdAt,value
2022-08-16T00:01:45.255Z,10.95061
2022-08-16T00:06:46.896Z,12.2074
2022-08-16T00:11:48.682Z,13.80498
2022-08-16T00:17:06.560Z,12.59052
2022-08-16T00:22:20.727Z,11.51039
2022-08-16T00:27:23.175Z,13.34163
2022-08-16T00:32:24.798Z,12.25162
2022-08-16T00:37:56.980Z,13.77623
2022-08-16T00:42:59.815Z,12.96142
2022-08-16T00:48:01.547Z,14.63013
2022-08-16T00:53:30.904Z,14.82379
2022-08-16T00:58:34.781Z,15.60054
2022-08-16T01:03:37.004Z,14.37749
2022-08-16T01:08:43.343Z,15.01966
2022-08-16T01:13:47.800Z,15.38863
2022-08-16T01:18:50.012Z,15.8495
2022-08-16T01:23:58.693Z,17.15236
2022-08-16T01:29:03.093Z,16.90663
2022-08-16T01:34:07.064Z,16.74358
2022-08-16T01:39:11.614Z,17.18252
2022-08-16T01:44:13.600Z,17.53915
2022-08-16T01:49:20.311Z,17.95173
2022-08-16T01:54:30.644Z,19.82734
2022-08-16T01:59:32.968Z,19.58832
2022-08-16T02:04:49.166Z,20.4607
2022-08-16T02:09:57.481Z,20.22741
2022-08-16T02:15:01.515Z,20.39461
2022-08-16T02:20:03.201Z,20.12369
2022-08-16T02:25:14.707Z,20.76743
2022-08-16T02:30:35.914Z,20.51162
2022-08-16T02:35:54.559Z,21.3938
2022-08-16T02:41:00.275Z,21.30427
2022-08-16T02:46:07.487Z,21.59453
2022-08-16T02:51:11.390Z,22.11649
2022-08-16T02:56:14.772Z,22.57702
2022-08-16T03:01:24.795Z,22.57162
2022-08-16T03:06:36.401Z,24.06656
2022-08-16T03:11:44.269Z,23.92697
2022-08-16T03:16:59.392Z,24.9885
2022-08-16T03:22:02.173Z,24.38103
2022-08-16T03:27:03.793Z,24.31629
2022-08-16T03:32:08.400Z,24.43982
2022-08-16T03:37:10.014Z,24.00135
2022-08-16T03:42:11.724Z,25.48037
2022-08-16T03:47:27.259Z,24.93081
2022-08-16T03:52:36.024Z,26.90398
2022-08-16T03:57:37.899Z,26.10478
2022-08-16T04:02:42.454Z,27.46037
2022-08-16T04:07:44.236Z,27.47144
2022-08-16T04:13:20.358Z,27.09175
2022-08-16T04:19:04.103Z,27.03307
2022-08-16T04:24:08.052Z,27.47052
2022-08-16T04:29:16.892Z,28.94933
2022-08-16T04:34:26.543Z,29.11055
2022-08-16T04:39:45.694Z,31.1634
2022-08-16T04:44:53.816Z,28.8735
2022-08-16T04:49:57.203Z,31.65969
2022-08-16T04:54:59.311Z,30.38617
2022-08-16T05:00:30.888Z,31.17742
2022-08-16T05:05:36.877Z,32.26497
2022-08-16T05:10:58.922Z,31.89934
2022-08-16T05:16:02.339Z,34.86267
2022-08-16T05:21:09.543Z,32.62232
2022-08-16T05:26:19.804Z,31.60407
2022-08-16T05:31:22.260Z,33.08897
2022-08-16T05:36:24.911Z,35.25419
2022-08-16T05:41:45.326Z,34.77735
2022-08-16T05:46:47.717Z,34.82439
2022-08-16T05:51:53.601Z,36.97145
2022-08-16T05:56:57.220Z,36.41364
2022-08-16T06:01:58.865Z,34.75838
2022-08-16T06:07:03.464Z,40.70406
2022-08-16T06:12:08.787Z,38.81993
2022-08-16T06:17:10.396Z,37.43404
2022-08-16T06:22:19.379Z,40.90048
2022-08-16T06:27:40.914Z,36.17904
2022-08-16T06:32:42.956Z,38.23553
2022-08-16T06:37:47.540Z,35.22238
2022-08-16T06:42:57.342Z,41.81414
2022-08-16T06:47:59.406Z,40.62874
2022-08-16T06:53:09.086Z,38.53275
2022-08-16T06:58:22.141Z,38.63772
2022-08-16T07:03:28.267Z,37.36769
2022-08-16T07:08:34.106Z,47.43016
2022-08-16T07:14:00.137Z,47.41101
2022-08-16T07:20:03.734Z,42.48777
2022-08-16T07:25:31.124Z,42.82086
2022-08-16T07:30:45.196Z,42.53843
2022-08-16T07:35:49.587Z,60.22511
2022-08-16T07:41:00.372Z,43.52313
2022-08-16T07:46:02.741Z,41.88704
2022-08-16T07:51:08.838Z,45.93989
2022-08-16T07:56:10.813Z,49.35235
2022-08-16T08:01:12.693Z,45.28898
2022-08-16T08:06:16.631Z,59.49392
2022-08-16T08:11:18.510Z,45.13986
2022-08-16T08:16:20.945Z,44.51985
2022-08-16T08:21:27.315Z,45.8613
2022-08-16T08:26:29.587Z,55.97711
2022-08-16T08:31:31.700Z,47.59563
2022-08-16T08:36:35.984Z,47.83163
2022-08-16T08:41:38.788Z,44.5343
2022-08-16T08:46:40.752Z,46.08325
2022-08-16T08:51:43.009Z,46.40975
2022-08-16T08:56:45.308Z,43.65265
2022-08-16T09:01:56.793Z,45.48853
2022-08-16T09:07:01.374Z,63.43231
2022-08-16T09:12:06.451Z,50.61747
2022-08-16T09:17:21.672Z,46.80838
2022-08-16T09:22:33.564Z,48.89286
2022-08-16T09:27:56.878Z,52.51136
2022-08-16T09:33:02.778Z,54.93325
2022-08-16T09:38:05.474Z,47.13421
2022-08-16T09:43:21.024Z,46.26531
2022-08-16T09:48:50.985Z,45.11067
2022-08-16T09:53:53.885Z,43.26458
2022-08-16T09:59:04.961Z,42.97102
2022-08-16T10:04:31.332Z,46.13367
2022-08-16T10:09:53.874Z,47.50294
2022-08-16T10:14:57.706Z,51.56037
2022-08-16T10:19:59.885Z,53.58768
2022-08-16T10:25:01.651Z,50.4053
2022-08-16T10:30:07.095Z,49.28255
2022-08-16T10:35:33.011Z,48.75122
2022-08-16T10:40:34.981Z,47.93363
2022-08-16T10:45:37.503Z,52.66046
2022-08-16T10:50:39.111Z,54.05543
2022-08-16T10:55:44.205Z,47.1097
2022-08-16T11:00:46.566Z,53.60529
2022-08-16T11:06:00.703Z,50.92039
2022-08-16T11:11:10.608Z,58.95196
2022-08-16T11:16:27.379Z,49.10985
2022-08-16T11:21:29.846Z,48.37034
2022-08-16T11:26:31.514Z,50.19026
2022-08-16T11:31:33.297Z,51.4611
2022-08-16T11:36:36.515Z,48.71427
2022-08-16T11:41:38.891Z,55.18181
2022-08-16T11:46:46.632Z,52.28207
2022-08-16T11:51:48.409Z,50.52612
2022-08-16T11:56:52.983Z,49.7963
2022-08-16T12:02:00.156Z,49.60586
2022-08-16T12:07:06.052Z,56.61379
2022-08-16T12:12:07.704Z,56.54184
2022-08-16T12:17:10.068Z,51.40203
2022-08-16T12:22:19.140Z,53.48656
2022-08-16T12:27:23.077Z,50.5692
2022-08-16T12:32:35.977Z,49.5321
2022-08-16T12:37:43.422Z,50.64054
2022-08-16T12:42:52.928Z,51.36857
2022-08-16T12:48:05.085Z,52.23539
2022-08-16T12:53:24.131Z,48.71199
2022-08-16T12:58:50.603Z,51.26436
2022-08-16T13:04:08.174Z,52.53255
2022-08-16T13:09:13.413Z,50.19163
2022-08-16T13:14:30.781Z,49.87931
2022-08-16T13:20:03.397Z,49.33263
2022-08-16T13:25:08.921Z,50.78114
2022-08-16T13:30:21.839Z,55.81416
2022-08-16T13:35:38.316Z,60.3823
2022-08-16T13:40:44.972Z,54.43275
2022-08-16T13:45:50.547Z,52.28386
2022-08-16T13:50:52.369Z,54.09302
2022-08-16T13:55:58.650Z,52.40137
2022-08-16T14:01:01.173Z,55.93032
2022-08-16T14:06:03.389Z,54.50708
2022-08-16T14:11:12.203Z,55.04062
2022-08-16T14:16:23.991Z,51.94731
2022-08-16T14:21:26.520Z,50.21644
2022-08-16T14:26:36.779Z,50.01409
2022-08-16T14:31:39.731Z,51.02624
2022-08-16T14:36:42.591Z,49.94648
2022-08-16T14:41:45.236Z,51.77171
2022-08-16T14:46:46.980Z,52.5129
2022-08-16T14:51:48.579Z,54.85512
2022-08-16T14:56:54.959Z,51.19305
2022-08-16T15:01:59.041Z,56.73348
2022-08-16T15:07:02.158Z,57.31566
2022-08-16T15:12:06.914Z,54.29539
2022-08-16T15:17:34.099Z,55.32479
2022-08-16T15:22:39.014Z,51.76855
2022-08-16T15:27:40.768Z,49.15156
2022-08-16T15:32:42.471Z,45.62592
2022-08-16T15:37:47.707Z,47.25487
2022-08-16T15:42:56.234Z,43.78463
2022-08-16T15:47:59.191Z,47.91101
2022-08-16T15:53:07.142Z,43.94854
2022-08-16T15:58:34.937Z,40.73291
2022-08-16T16:03:37.531Z,40.01547
2022-08-16T16:08:41.701Z,40.46675
2022-08-16T16:13:43.668Z,40.1422
2022-08-16T16:18:48.997Z,34.90652
2022-08-16T16:23:53.067Z,34.5017
2022-08-16T16:29:08.765Z,32.95886
2022-08-16T16:34:16.853Z,31.53445
2022-08-16T16:39:18.467Z,33.22402
2022-08-16T16:44:32.054Z,34.62836
2022-08-16T16:49:41.701Z,33.33279
2022-08-16T16:54:43.601Z,29.16059
2022-08-16T16:59:48.676Z,32.64258
2022-08-16T17:04:57.296Z,30.79464
2022-08-16T17:09:58.899Z,28.45667
2022-08-16T17:15:02.253Z,26.95823
2022-08-16T17:20:04.039Z,25.96388
2022-08-16T17:25:07.362Z,25.07546
2022-08-16T17:30:15.663Z,25.1976
2022-08-16T17:35:18.963Z,24.81088
2022-08-16T17:40:26.896Z,23.94316
2022-08-16T17:45:48.423Z,23.76954
2022-08-16T17:50:49.996Z,23.48662
2022-08-16T17:55:56.514Z,25.26415
2022-08-16T18:00:58.322Z,25.89906
2022-08-16T18:05:59.927Z,23.33492
2022-08-16T18:11:01.494Z,23.24432
2022-08-16T18:16:03.113Z,22.38014
2022-08-16T18:21:04.709Z,22.8459
2022-08-16T18:26:06.344Z,22.50292
2022-08-16T18:31:07.944Z,21.83401
2022-08-16T18:36:20.185Z,21.27619
2022-08-16T18:41:23.244Z,21.46154
2022-08-16T18:46:24.841Z,21.35598
2022-08-16T18:51:26.463Z,20.50915
2022-08-16T18:56:55.229Z,21.21544
2022-08-16T19:02:04.166Z,20.66769
2022-08-16T19:07:07.021Z,19.44139
2022-08-16T19:12:08.622Z,20.03079
2022-08-16T19:17:10.211Z,19.56142
2022-08-16T19:22:11.835Z,19.23002
2022-08-16T19:27:13.450Z,18.9105
2022-08-16T19:32:15.188Z,19.37479
2022-08-16T19:37:16.810Z,18.97038
2022-08-16T19:42:18.456Z,19.76067
2022-08-16T19:47:20.061Z,18.77153
2022-08-16T19:52:21.641Z,18.30952
2022-08-16T19:57:23.234Z,17.68231
2022-08-16T20:02:36.066Z,17.25933
2022-08-16T20:07:38.524Z,17.40149
2022-08-16T20:12:40.226Z,16.08338
2022-08-16T20:17:43.816Z,16.0009
2022-08-16T20:22:54.229Z,15.74148
2022-08-16T20:27:56.279Z,16.01609
2022-08-16T20:32:57.871Z,15.08114
2022-08-16T20:37:59.483Z,14.28801
2022-08-16T20:43:01.675Z,13.25048
2022-08-16T20:48:03.382Z,12.86607
2022-08-16T20:53:04.982Z,13.75238
2022-08-16T20:58:06.574Z,14.75548
2022-08-16T21:03:08.198Z,12.93201
2022-08-16T21:08:29.408Z,11.42298
2022-08-16T21:13:55.434Z,12.50261
2022-08-16T21:19:02.449Z,12.6158
2022-08-16T21:24:04.047Z,13.52415
2022-08-16T21:29:05.670Z,12.61215
2022-08-16T21:34:09.503Z,13.03593
2022-08-16T21:39:11.130Z,11.49158
2022-08-16T21:44:12.732Z,11.14471
2022-08-16T21:49:14.403Z,12.27882
2022-08-16T21:54:16.078Z,10.7401
2022-08-16T21:59:17.739Z,9.25497
2022-08-16T22:04:37.786Z,9.58
2022-08-16T22:09:40.669Z,10.11737
2022-08-16T22:14:42.279Z,9.42063
2022-08-16T22:19:43.895Z,10.95368
2022-08-16T22:24:45.506Z,9.77745
2022-08-16T22:29:47.131Z,10.2471
2022-08-16T22:34:48.815Z,10.78104
2022-08-16T22:39:50.474Z,10.12185
2022-08-16T22:44:52.098Z,9.9343
2022-08-16T22:49:53.727Z,10.92603
2022-08-16T22:54:55.337Z,9.024
2022-08-16T22:59:56.930Z,8.88983
2022-08-16T23:04:58.555Z,8.7627
2022-08-16T23:10:00.412Z,9.94385
2022-08-16T23:15:02.022Z,9.70381
2022-08-16T23:20:03.599Z,9.13371
2022-08-16T23:25:05.223Z,9.15352
2022-08-16T23:30:06.818Z,9.36802
2022-08-16T23:35:08.587Z,9.41334
2022-08-16T23:40:10.238Z,8.6328
2022-08-16T23:45:11.857Z,9.15567
2022-08-16T23:50:13.460Z,9.22579
2022-08-16T23:55:16.464Z,8.45442
